Key West, FL

8:59 PM EDT on August 30, 2015 (GMT -0400)
Big Coppitt Key Gulfside | | Change Station
CLOSE
Current Station
Personal Weather Station
Location: Key West, FL
Elevation: 31 ft
Nearby Weather Stations

Elev 31 ft 24.60 °N, 81.67 °W | Updated 5 minutes ago

Overcast
Overcast
82.0 °F
Feels Like 90 °F
N
6.3
Wind Variable Wind from SSW

Today
High -- | Low -- °F
--% Chance of Precip.
Yesterday
High -- | Low -- °F
Precip. -- in
7:06 AM 7:47 PM
Full, 98% visible
Pressure 29.96 in
Visibility 10.0 miles
Clouds Few 2100 ft
Mostly Cloudy 5500 ft
Mostly Cloudy 14000 ft
Overcast 25000 ft
Heat Index 90 °F
Dew Point 77 °F
Humidity 84%
Rainfall 0.02 in
Snow Depth Not available.
UV 0 out of 12
Pollen 1.60 out of 12
Air Quality Not available.
Flu Activity Not available.
METAR KNQX 310053Z 20012KT 10SM FEW021 BKN055 BKN140 OVC250 28/24 A2996 RMK AO2 SLP144 FRQ LTGIC DSNT N CB DSNT N T02780244 $
Pressure 29.96 in
Visibility 10.0 miles
Clouds Few 2100 ft
Mostly Cloudy 5500 ft
Mostly Cloudy 14000 ft
Overcast 25000 ft
Heat Index 90 °F
Dew Point 77 °F
Humidity 84%
Rainfall 0.02 in
Snow Depth Not available.
UV 0 out of 12
Pollen 1.60 out of 12
Air Quality Not available.
Flu Activity Not available.
METAR KNQX 310053Z 20012KT 10SM FEW021 BKN055 BKN140 OVC250 28/24 A2996 RMK AO2 SLP144 FRQ LTGIC DSNT N CB DSNT N T02780244 $

10-Day Weather Forecast

×

Almanac

Astronomy

Aug. 30, 2015 Rise Set
Actual Time
Civil Twilight
Nautical Twilight
Astronomical Twilight
Moon
Length of Visible Light
Length of Day
Tomorrow will be .
, % of the Moon is Illuminated

Today's Extremes

State Highs State Lows

Community

WunderPhotos

Upload Photos

1,851,116 photos uploaded!

WunderBlogs® & News

Nearby

Air Quality

  Air Quality AQ Index Pollutant
Not available.

Snow Depth

Station Depth Elevation

Earthquake Activity

City Distance Mag. Time & Date
Minimum magnitude displayed is 2.5.

Coastal Water Temperatures

Place Temperature

Stations

Nearby Weather Stations

Station Location Temp. Windchill Dew Point Humidity Wind Precip. Elev Updated Type